sensor_id;sensor_type;location;lat;lon;timestamp;temperature;humidity
7934;DHT22;4012;48.896;9.192;2024-03-07T00:01:58;6.10;99.90
7934;DHT22;4012;48.896;9.192;2024-03-07T00:04:24;6.10;99.90
7934;DHT22;4012;48.896;9.192;2024-03-07T00:06:50;6.10;99.90
7934;DHT22;4012;48.896;9.192;2024-03-07T00:09:15;6.10;99.90
7934;DHT22;4012;48.896;9.192;2024-03-07T00:11:41;6.00;99.90
7934;DHT22;4012;48.896;9.192;2024-03-07T00:14:07;6.00;99.90
7934;DHT22;4012;48.896;9.192;2024-03-07T00:16:33;5.90;99.90
7934;DHT22;4012;48.896;9.192;2024-03-07T00:19:00;5.90;99.90
7934;DHT22;4012;48.896;9.192;2024-03-07T00:21:26;5.90;99.90
7934;DHT22;4012;48.896;9.192;2024-03-07T00:23:51;5.90;99.90
7934;DHT22;4012;48.896;9.192;2024-03-07T00:26:19;5.90;99.90
7934;DHT22;4012;48.896;9.192;2024-03-07T00:28:44;5.80;99.90
7934;DHT22;4012;48.896;9.192;2024-03-07T00:31:10;5.80;99.90
7934;DHT22;4012;48.896;9.192;2024-03-07T00:33:36;5.80;99.90
7934;DHT22;4012;48.896;9.192;2024-03-07T00:36:02;5.80;99.90
7934;DHT22;4012;48.896;9.192;2024-03-07T00:38:28;5.70;99.90
7934;DHT22;4012;48.896;9.192;2024-03-07T00:40:53;5.70;99.90
7934;DHT22;4012;48.896;9.192;2024-03-07T00:43:19;5.60;99.90
7934;DHT22;4012;48.896;9.192;2024-03-07T00:45:45;5.60;99.90
7934;DHT22;4012;48.896;9.192;2024-03-07T00:48:15;5.60;99.90
7934;DHT22;4012;48.896;9.192;2024-03-07T00:50:41;5.50;99.90
7934;DHT22;4012;48.896;9.192;2024-03-07T00:53:08;5.40;99.90
7934;DHT22;4012;48.896;9.192;2024-03-07T00:55:33;5.40;99.90
7934;DHT22;4012;48.896;9.192;2024-03-07T00:57:59;5.30;99.90
7934;DHT22;4012;48.896;9.192;2024-03-07T01:00:24;5.30;99.90
7934;DHT22;4012;48.896;9.192;2024-03-07T01:02:50;5.30;99.90
7934;DHT22;4012;48.896;9.192;2024-03-07T01:05:18;5.20;99.90
7934;DHT22;4012;48.896;9.192;2024-03-07T01:07:44;5.20;99.90
7934;DHT22;4012;48.896;9.192;2024-03-07T01:10:12;5.10;99.90
7934;DHT22;4012;48.896;9.192;2024-03-07T01:12:38;5.10;99.90
7934;DHT22;4012;48.896;9.192;2024-03-07T01:15:04;5.00;99.90
7934;DHT22;4012;48.896;9.192;2024-03-07T01:17:29;5.00;99.90
7934;DHT22;4012;48.896;9.192;2024-03-07T01:19:55;5.00;99.90
7934;DHT22;4012;48.896;9.192;2024-03-07T01:22:21;5.00;99.90
7934;DHT22;4012;48.896;9.192;2024-03-07T01:24:47;4.90;99.90
7934;DHT22;4012;48.896;9.192;2024-03-07T01:27:13;4.90;99.90
7934;DHT22;4012;48.896;9.192;2024-03-07T01:29:39;4.90;99.90
7934;DHT22;4012;48.896;9.192;2024-03-07T01:32:07;4.80;99.90
7934;DHT22;4012;48.896;9.192;2024-03-07T01:34:32;4.80;99.90
7934;DHT22;4012;48.896;9.192;2024-03-07T01:36:58;4.80;99.90
7934;DHT22;4012;48.896;9.192;2024-03-07T01:39:23;4.80;99.90
7934;DHT22;4012;48.896;9.192;2024-03-07T01:41:49;4.70;99.90
7934;DHT22;4012;48.896;9.192;2024-03-07T01:44:15;4.80;99.90
7934;DHT22;4012;48.896;9.192;2024-03-07T01:46:40;4.70;99.90
7934;DHT22;4012;48.896;9.192;2024-03-07T01:49:09;4.70;99.90
7934;DHT22;4012;48.896;9.192;2024-03-07T01:51:36;4.70;99.90
7934;DHT22;4012;48.896;9.192;2024-03-07T01:54:02;4.70;99.90
7934;DHT22;4012;48.896;9.192;2024-03-07T01:56:28;4.60;99.90
7934;DHT22;4012;48.896;9.192;2024-03-07T01:58:55;4.60;99.90
7934;DHT22;4012;48.896;9.192;2024-03-07T02:01:23;4.60;99.90
7934;DHT22;4012;48.896;9.192;2024-03-07T02:03:48;4.60;99.90
7934;DHT22;4012;48.896;9.192;2024-03-07T02:06:14;4.60;99.90
7934;DHT22;4012;48.896;9.192;2024-03-07T02:08:40;4.50;99.90
7934;DHT22;4012;48.896;9.192;2024-03-07T02:11:06;4.50;99.90
7934;DHT22;4012;48.896;9.192;2024-03-07T02:13:31;4.50;99.90
7934;DHT22;4012;48.896;9.192;2024-03-07T02:15:57;4.50;99.90
7934;DHT22;4012;48.896;9.192;2024-03-07T02:18:23;4.50;99.90
7934;DHT22;4012;48.896;9.192;2024-03-07T02:20:49;4.40;99.90
7934;DHT22;4012;48.896;9.192;2024-03-07T02:23:14;4.40;99.90
7934;DHT22;4012;48.896;9.192;2024-03-07T02:25:40;4.40;99.90
7934;DHT22;4012;48.896;9.192;2024-03-07T02:28:06;4.40;99.90
7934;DHT22;4012;48.896;9.192;2024-03-07T02:30:32;4.30;99.90
7934;DHT22;4012;48.896;9.192;2024-03-07T02:33:01;4.30;99.90
7934;DHT22;4012;48.896;9.192;2024-03-07T02:35:33;4.30;99.90
7934;DHT22;4012;48.896;9.192;2024-03-07T02:38:00;4.30;99.90
7934;DHT22;4012;48.896;9.192;2024-03-07T02:40:25;4.30;99.90
7934;DHT22;4012;48.896;9.192;2024-03-07T02:42:51;4.30;99.90
7934;DHT22;4012;48.896;9.192;2024-03-07T02:45:17;4.20;99.90
7934;DHT22;4012;48.896;9.192;2024-03-07T02:47:42;4.20;99.90
7934;DHT22;4012;48.896;9.192;2024-03-07T02:50:10;4.10;99.90
7934;DHT22;4012;48.896;9.192;2024-03-07T02:52:36;4.10;99.90
7934;DHT22;4012;48.896;9.192;2024-03-07T02:55:02;4.10;99.90
7934;DHT22;4012;48.896;9.192;2024-03-07T02:57:30;4.10;99.90
7934;DHT22;4012;48.896;9.192;2024-03-07T02:59:56;4.10;99.90
7934;DHT22;4012;48.896;9.192;2024-03-07T03:02:22;4.10;99.90
7934;DHT22;4012;48.896;9.192;2024-03-07T03:04:48;4.00;99.90
7934;DHT22;4012;48.896;9.192;2024-03-07T03:07:14;4.00;99.90
7934;DHT22;4012;48.896;9.192;2024-03-07T03:09:39;3.90;99.90
7934;DHT22;4012;48.896;9.192;2024-03-07T03:12:09;3.90;99.90
7934;DHT22;4012;48.896;9.192;2024-03-07T03:14:34;3.90;99.90
7934;DHT22;4012;48.896;9.192;2024-03-07T03:17:00;3.80;99.90
7934;DHT22;4012;48.896;9.192;2024-03-07T03:19:25;3.80;99.90
7934;DHT22;4012;48.896;9.192;2024-03-07T03:21:52;3.70;99.90
7934;DHT22;4012;48.896;9.192;2024-03-07T03:24:17;3.60;99.90
7934;DHT22;4012;48.896;9.192;2024-03-07T03:26:44;3.60;99.90
7934;DHT22;4012;48.896;9.192;2024-03-07T03:29:10;3.60;99.90
7934;DHT22;4012;48.896;9.192;2024-03-07T03:31:37;3.60;99.90
7934;DHT22;4012;48.896;9.192;2024-03-07T03:34:02;3.50;99.90
7934;DHT22;4012;48.896;9.192;2024-03-07T03:36:28;3.50;99.90
7934;DHT22;4012;48.896;9.192;2024-03-07T03:38:55;3.50;99.90
7934;DHT22;4012;48.896;9.192;2024-03-07T03:41:20;3.50;99.90
7934;DHT22;4012;48.896;9.192;2024-03-07T03:43:46;3.40;99.90
7934;DHT22;4012;48.896;9.192;2024-03-07T03:46:13;3.40;99.90
7934;DHT22;4012;48.896;9.192;2024-03-07T03:48:42;3.40;99.90
7934;DHT22;4012;48.896;9.192;2024-03-07T03:51:08;3.30;99.90
7934;DHT22;4012;48.896;9.192;2024-03-07T03:53:37;3.30;99.90
7934;DHT22;4012;48.896;9.192;2024-03-07T03:56:03;3.40;99.90
7934;DHT22;4012;48.896;9.192;2024-03-07T03:58:32;3.30;99.90
7934;DHT22;4012;48.896;9.192;2024-03-07T04:00:57;3.20;99.90
7934;DHT22;4012;48.896;9.192;2024-03-07T04:03:26;3.20;99.90
7934;DHT22;4012;48.896;9.192;2024-03-07T04:05:52;3.20;99.90
7934;DHT22;4012;48.896;9.192;2024-03-07T04:08:17;3.20;99.90
7934;DHT22;4012;48.896;9.192;2024-03-07T04:10:45;3.10;99.90
7934;DHT22;4012;48.896;9.192;2024-03-07T04:13:11;3.10;99.90
7934;DHT22;4012;48.896;9.192;2024-03-07T04:15:36;3.00;99.90
7934;DHT22;4012;48.896;9.192;2024-03-07T04:18:02;3.00;99.90
7934;DHT22;4012;48.896;9.192;2024-03-07T04:20:27;2.90;99.90
7934;DHT22;4012;48.896;9.192;2024-03-07T04:22:53;2.90;99.90
7934;DHT22;4012;48.896;9.192;2024-03-07T04:25:21;2.80;99.90
7934;DHT22;4012;48.896;9.192;2024-03-07T04:27:46;2.80;99.90
7934;DHT22;4012;48.896;9.192;2024-03-07T04:30:12;2.80;99.90
7934;DHT22;4012;48.896;9.192;2024-03-07T04:32:38;2.80;99.90
7934;DHT22;4012;48.896;9.192;2024-03-07T04:35:05;2.70;99.90
7934;DHT22;4012;48.896;9.192;2024-03-07T04:37:33;2.70;99.90
7934;DHT22;4012;48.896;9.192;2024-03-07T04:40:09;2.70;99.90
7934;DHT22;4012;48.896;9.192;2024-03-07T04:42:50;2.70;99.90
7934;DHT22;4012;48.896;9.192;2024-03-07T04:45:16;2.70;99.90
7934;DHT22;4012;48.896;9.192;2024-03-07T04:47:43;2.60;99.90
7934;DHT22;4012;48.896;9.192;2024-03-07T04:50:10;2.60;99.90
7934;DHT22;4012;48.896;9.192;2024-03-07T04:52:39;2.60;99.90
7934;DHT22;4012;48.896;9.192;2024-03-07T04:55:08;2.60;99.90
7934;DHT22;4012;48.896;9.192;2024-03-07T04:57:39;2.60;99.90
7934;DHT22;4012;48.896;9.192;2024-03-07T05:00:10;2.50;99.90
7934;DHT22;4012;48.896;9.192;2024-03-07T05:02:43;2.50;99.90
7934;DHT22;4012;48.896;9.192;2024-03-07T05:05:09;2.50;99.90
7934;DHT22;4012;48.896;9.192;2024-03-07T05:07:38;2.40;99.90
7934;DHT22;4012;48.896;9.192;2024-03-07T05:10:08;2.40;99.90
7934;DHT22;4012;48.896;9.192;2024-03-07T05:12:34;2.40;99.90
7934;DHT22;4012;48.896;9.192;2024-03-07T05:15:00;2.40;99.90
7934;DHT22;4012;48.896;9.192;2024-03-07T05:17:25;2.30;99.90
7934;DHT22;4012;48.896;9.192;2024-03-07T05:19:51;2.30;99.90
7934;DHT22;4012;48.896;9.192;2024-03-07T05:22:17;2.30;99.90
7934;DHT22;4012;48.896;9.192;2024-03-07T05:24:45;2.20;99.90
7934;DHT22;4012;48.896;9.192;2024-03-07T05:27:11;2.20;99.90
7934;DHT22;4012;48.896;9.192;2024-03-07T05:29:37;2.20;99.90
7934;DHT22;4012;48.896;9.192;2024-03-07T05:32:25;2.20;99.90
7934;DHT22;4012;48.896;9.192;2024-03-07T05:34:52;2.20;99.90
7934;DHT22;4012;48.896;9.192;2024-03-07T05:37:19;2.20;99.90
7934;DHT22;4012;48.896;9.192;2024-03-07T05:39:52;2.20;99.90
7934;DHT22;4012;48.896;9.192;2024-03-07T05:42:18;2.30;99.90
7934;DHT22;4012;48.896;9.192;2024-03-07T05:44:44;2.30;99.90
7934;DHT22;4012;48.896;9.192;2024-03-07T05:47:10;2.30;99.90
7934;DHT22;4012;48.896;9.192;2024-03-07T05:49:37;2.30;99.90
7934;DHT22;4012;48.896;9.192;2024-03-07T05:52:04;2.20;99.90
7934;DHT22;4012;48.896;9.192;2024-03-07T05:54:31;2.30;99.90
7934;DHT22;4012;48.896;9.192;2024-03-07T05:56:57;2.30;99.90
7934;DHT22;4012;48.896;9.192;2024-03-07T05:59:22;2.30;99.90
7934;DHT22;4012;48.896;9.192;2024-03-07T06:01:48;2.30;99.90
7934;DHT22;4012;48.896;9.192;2024-03-07T06:04:14;2.30;99.90
7934;DHT22;4012;48.896;9.192;2024-03-07T06:06:40;2.30;99.90
7934;DHT22;4012;48.896;9.192;2024-03-07T06:09:08;2.30;99.90
7934;DHT22;4012;48.896;9.192;2024-03-07T06:11:37;2.40;99.90
7934;DHT22;4012;48.896;9.192;2024-03-07T06:14:04;2.40;99.90
7934;DHT22;4012;48.896;9.192;2024-03-07T06:16:37;2.50;99.90
7934;DHT22;4012;48.896;9.192;2024-03-07T06:19:04;2.50;99.90
7934;DHT22;4012;48.896;9.192;2024-03-07T06:21:33;2.50;99.90
7934;DHT22;4012;48.896;9.192;2024-03-07T06:23:59;2.50;99.90
7934;DHT22;4012;48.896;9.192;2024-03-07T06:26:33;2.60;99.90
7934;DHT22;4012;48.896;9.192;2024-03-07T06:29:11;2.60;99.90
7934;DHT22;4012;48.896;9.192;2024-03-07T06:31:37;2.60;99.90
7934;DHT22;4012;48.896;9.192;2024-03-07T06:34:03;2.70;99.90
7934;DHT22;4012;48.896;9.192;2024-03-07T06:36:29;2.70;99.90
7934;DHT22;4012;48.896;9.192;2024-03-07T06:38:55;2.70;99.90
7934;DHT22;4012;48.896;9.192;2024-03-07T06:41:21;2.80;99.90
7934;DHT22;4012;48.896;9.192;2024-03-07T06:43:46;2.90;99.90
7934;DHT22;4012;48.896;9.192;2024-03-07T06:46:12;2.90;99.90
7934;DHT22;4012;48.896;9.192;2024-03-07T06:48:38;3.00;99.90
7934;DHT22;4012;48.896;9.192;2024-03-07T06:51:06;3.10;99.90
7934;DHT22;4012;48.896;9.192;2024-03-07T06:53:32;3.10;99.90
7934;DHT22;4012;48.896;9.192;2024-03-07T06:55:57;3.00;99.90
7934;DHT22;4012;48.896;9.192;2024-03-07T06:58:23;3.10;99.90
7934;DHT22;4012;48.896;9.192;2024-03-07T07:00:49;3.10;99.90
7934;DHT22;4012;48.896;9.192;2024-03-07T07:03:17;3.10;99.90
7934;DHT22;4012;48.896;9.192;2024-03-07T07:05:45;3.10;99.90
7934;DHT22;4012;48.896;9.192;2024-03-07T07:08:11;3.20;99.90
7934;DHT22;4012;48.896;9.192;2024-03-07T07:10:38;3.20;99.90
7934;DHT22;4012;48.896;9.192;2024-03-07T07:13:06;3.20;99.90
7934;DHT22;4012;48.896;9.192;2024-03-07T07:15:32;3.10;99.90
7934;DHT22;4012;48.896;9.192;2024-03-07T07:17:58;3.10;99.90
7934;DHT22;4012;48.896;9.192;2024-03-07T07:20:25;3.30;99.90
7934;DHT22;4012;48.896;9.192;2024-03-07T07:22:51;3.20;99.90
7934;DHT22;4012;48.896;9.192;2024-03-07T07:25:18;3.30;99.90
7934;DHT22;4012;48.896;9.192;2024-03-07T07:27:46;3.30;99.90
7934;DHT22;4012;48.896;9.192;2024-03-07T07:30:14;3.40;99.90
7934;DHT22;4012;48.896;9.192;2024-03-07T07:32:40;3.40;99.90
7934;DHT22;4012;48.896;9.192;2024-03-07T07:35:07;3.40;99.90
7934;DHT22;4012;48.896;9.192;2024-03-07T07:37:40;3.40;99.90
7934;DHT22;4012;48.896;9.192;2024-03-07T07:40:07;3.60;99.90
7934;DHT22;4012;48.896;9.192;2024-03-07T07:42:39;3.60;99.90
7934;DHT22;4012;48.896;9.192;2024-03-07T07:45:11;3.60;99.90
7934;DHT22;4012;48.896;9.192;2024-03-07T07:47:48;3.70;99.90
7934;DHT22;4012;48.896;9.192;2024-03-07T07:50:16;3.80;99.90
7934;DHT22;4012;48.896;9.192;2024-03-07T07:55:16;3.90;99.90
7934;DHT22;4012;48.896;9.192;2024-03-07T07:57:43;4.20;99.90
7934;DHT22;4012;48.896;9.192;2024-03-07T08:00:14;4.70;99.90
7934;DHT22;4012;48.896;9.192;2024-03-07T08:02:49;5.80;99.90
7934;DHT22;4012;48.896;9.192;2024-03-07T08:05:15;6.30;99.90
7934;DHT22;4012;48.896;9.192;2024-03-07T08:07:44;7.10;99.90
7934;DHT22;4012;48.896;9.192;2024-03-07T08:10:10;7.00;99.90
7934;DHT22;4012;48.896;9.192;2024-03-07T08:12:35;6.40;99.90
7934;DHT22;4012;48.896;9.192;2024-03-07T08:15:03;6.20;99.90
7934;DHT22;4012;48.896;9.192;2024-03-07T08:17:30;7.00;99.90
7934;DHT22;4012;48.896;9.192;2024-03-07T08:19:56;7.40;99.90
7934;DHT22;4012;48.896;9.192;2024-03-07T08:22:22;8.20;99.90
7934;DHT22;4012;48.896;9.192;2024-03-07T08:24:49;9.30;99.90
7934;DHT22;4012;48.896;9.192;2024-03-07T08:27:14;8.90;99.90
7934;DHT22;4012;48.896;9.192;2024-03-07T08:29:40;8.60;99.90
7934;DHT22;4012;48.896;9.192;2024-03-07T08:32:06;8.10;99.90
7934;DHT22;4012;48.896;9.192;2024-03-07T08:34:32;7.20;99.90
7934;DHT22;4012;48.896;9.192;2024-03-07T08:36:57;7.40;99.90
7934;DHT22;4012;48.896;9.192;2024-03-07T08:39:24;7.50;99.90
7934;DHT22;4012;48.896;9.192;2024-03-07T08:41:50;7.80;99.90
7934;DHT22;4012;48.896;9.192;2024-03-07T08:44:15;7.30;99.90
7934;DHT22;4012;48.896;9.192;2024-03-07T08:46:41;6.60;99.90
7934;DHT22;4012;48.896;9.192;2024-03-07T08:49:07;5.90;99.90
7934;DHT22;4012;48.896;9.192;2024-03-07T08:51:32;5.90;99.90
7934;DHT22;4012;48.896;9.192;2024-03-07T08:53:58;5.90;99.90
7934;DHT22;4012;48.896;9.192;2024-03-07T08:56:24;6.50;99.90
7934;DHT22;4012;48.896;9.192;2024-03-07T08:58:50;6.10;99.90
7934;DHT22;4012;48.896;9.192;2024-03-07T09:01:15;6.40;99.90
7934;DHT22;4012;48.896;9.192;2024-03-07T09:03:41;6.10;99.90
7934;DHT22;4012;48.896;9.192;2024-03-07T09:06:06;6.20;99.90
7934;DHT22;4012;48.896;9.192;2024-03-07T09:08:32;6.00;99.90
7934;DHT22;4012;48.896;9.192;2024-03-07T09:10:58;6.10;99.90
7934;DHT22;4012;48.896;9.192;2024-03-07T09:13:23;6.70;99.90
7934;DHT22;4012;48.896;9.192;2024-03-07T09:15:49;6.70;99.90
7934;DHT22;4012;48.896;9.192;2024-03-07T09:18:15;6.60;99.90
7934;DHT22;4012;48.896;9.192;2024-03-07T09:20:41;6.00;99.90
7934;DHT22;4012;48.896;9.192;2024-03-07T09:23:07;5.90;99.90
7934;DHT22;4012;48.896;9.192;2024-03-07T09:25:33;6.00;99.90
7934;DHT22;4012;48.896;9.192;2024-03-07T09:27:59;6.20;99.90
7934;DHT22;4012;48.896;9.192;2024-03-07T09:30:26;6.10;99.90
7934;DHT22;4012;48.896;9.192;2024-03-07T09:32:55;6.80;99.90
7934;DHT22;4012;48.896;9.192;2024-03-07T09:35:20;7.00;99.90
7934;DHT22;4012;48.896;9.192;2024-03-07T09:37:46;6.60;99.90
7934;DHT22;4012;48.896;9.192;2024-03-07T09:40:12;6.20;99.90
7934;DHT22;4012;48.896;9.192;2024-03-07T09:42:49;6.00;99.90
7934;DHT22;4012;48.896;9.192;2024-03-07T09:45:18;5.80;99.90
7934;DHT22;4012;48.896;9.192;2024-03-07T09:47:49;7.00;99.90
7934;DHT22;4012;48.896;9.192;2024-03-07T09:50:20;7.80;99.90
7934;DHT22;4012;48.896;9.192;2024-03-07T09:52:48;8.30;99.90
7934;DHT22;4012;48.896;9.192;2024-03-07T09:55:18;9.20;99.90
7934;DHT22;4012;48.896;9.192;2024-03-07T09:57:48;9.70;99.90
7934;DHT22;4012;48.896;9.192;2024-03-07T10:00:19;10.30;99.90
7934;DHT22;4012;48.896;9.192;2024-03-07T10:02:53;11.90;99.90
7934;DHT22;4012;48.896;9.192;2024-03-07T10:05:22;14.20;99.90
7934;DHT22;4012;48.896;9.192;2024-03-07T10:10:15;15.30;99.90
7934;DHT22;4012;48.896;9.192;2024-03-07T10:12:41;11.90;99.90
7934;DHT22;4012;48.896;9.192;2024-03-07T10:15:07;11.10;99.90
7934;DHT22;4012;48.896;9.192;2024-03-07T10:17:39;13.40;99.90
7934;DHT22;4012;48.896;9.192;2024-03-07T10:20:06;14.00;99.90
7934;DHT22;4012;48.896;9.192;2024-03-07T10:22:36;15.00;99.90
7934;DHT22;4012;48.896;9.192;2024-03-07T10:25:03;13.40;99.90
7934;DHT22;4012;48.896;9.192;2024-03-07T10:27:29;13.40;99.90
7934;DHT22;4012;48.896;9.192;2024-03-07T10:29:55;11.90;99.90
7934;DHT22;4012;48.896;9.192;2024-03-07T10:32:22;12.60;99.90
7934;DHT22;4012;48.896;9.192;2024-03-07T10:34:51;13.50;99.90
7934;DHT22;4012;48.896;9.192;2024-03-07T10:37:17;15.40;99.90
7934;DHT22;4012;48.896;9.192;2024-03-07T10:39:45;14.40;99.90
7934;DHT22;4012;48.896;9.192;2024-03-07T10:42:16;11.90;99.90
7934;DHT22;4012;48.896;9.192;2024-03-07T10:44:44;10.50;99.90
7934;DHT22;4012;48.896;9.192;2024-03-07T10:47:16;10.20;99.90
7934;DHT22;4012;48.896;9.192;2024-03-07T10:52:48;10.40;99.90
7934;DHT22;4012;48.896;9.192;2024-03-07T10:55:34;12.00;99.90
7934;DHT22;4012;48.896;9.192;2024-03-07T10:58:13;12.30;99.90
7934;DHT22;4012;48.896;9.192;2024-03-07T11:00:41;12.30;99.90
7934;DHT22;4012;48.896;9.192;2024-03-07T11:03:11;10.10;99.90
7934;DHT22;4012;48.896;9.192;2024-03-07T11:05:37;9.10;99.90
7934;DHT22;4012;48.896;9.192;2024-03-07T11:08:03;8.90;99.90
7934;DHT22;4012;48.896;9.192;2024-03-07T11:10:39;8.40;99.90
7934;DHT22;4012;48.896;9.192;2024-03-07T11:13:07;8.40;99.90
7934;DHT22;4012;48.896;9.192;2024-03-07T11:15:35;8.50;99.90
7934;DHT22;4012;48.896;9.192;2024-03-07T11:18:01;8.20;99.90
7934;DHT22;4012;48.896;9.192;2024-03-07T11:20:39;8.20;99.90
7934;DHT22;4012;48.896;9.192;2024-03-07T11:23:28;8.30;99.90
7934;DHT22;4012;48.896;9.192;2024-03-07T11:26:06;8.70;99.90
7934;DHT22;4012;48.896;9.192;2024-03-07T11:28:43;8.90;99.90
7934;DHT22;4012;48.896;9.192;2024-03-07T11:31:27;9.00;99.90
7934;DHT22;4012;48.896;9.192;2024-03-07T11:34:12;9.20;99.90
7934;DHT22;4012;48.896;9.192;2024-03-07T11:36:48;8.90;99.90
7934;DHT22;4012;48.896;9.192;2024-03-07T11:39:40;9.30;99.90
7934;DHT22;4012;48.896;9.192;2024-03-07T11:42:07;9.70;99.90
7934;DHT22;4012;48.896;9.192;2024-03-07T11:44:33;9.80;99.90
7934;DHT22;4012;48.896;9.192;2024-03-07T11:47:05;8.80;99.90
7934;DHT22;4012;48.896;9.192;2024-03-07T11:49:36;9.30;99.90
7934;DHT22;4012;48.896;9.192;2024-03-07T11:52:03;8.90;99.90
7934;DHT22;4012;48.896;9.192;2024-03-07T11:54:39;8.50;99.90
7934;DHT22;4012;48.896;9.192;2024-03-07T11:57:20;8.30;99.90
7934;DHT22;4012;48.896;9.192;2024-03-07T11:59:52;8.50;99.90
7934;DHT22;4012;48.896;9.192;2024-03-07T12:02:18;8.50;99.90
7934;DHT22;4012;48.896;9.192;2024-03-07T12:04:48;8.50;99.90
7934;DHT22;4012;48.896;9.192;2024-03-07T12:07:16;8.30;99.90
7934;DHT22;4012;48.896;9.192;2024-03-07T12:09:44;8.50;99.90
7934;DHT22;4012;48.896;9.192;2024-03-07T12:12:16;8.30;99.90
7934;DHT22;4012;48.896;9.192;2024-03-07T12:14:42;8.30;99.90
7934;DHT22;4012;48.896;9.192;2024-03-07T12:17:08;8.40;99.90
7934;DHT22;4012;48.896;9.192;2024-03-07T12:19:34;8.90;99.90
7934;DHT22;4012;48.896;9.192;2024-03-07T12:22:07;8.40;99.90
7934;DHT22;4012;48.896;9.192;2024-03-07T12:24:40;8.60;99.90
7934;DHT22;4012;48.896;9.192;2024-03-07T12:27:15;8.80;99.90
7934;DHT22;4012;48.896;9.192;2024-03-07T12:29:42;9.00;99.90
7934;DHT22;4012;48.896;9.192;2024-03-07T12:32:08;9.30;99.90
7934;DHT22;4012;48.896;9.192;2024-03-07T12:34:37;9.40;99.90
7934;DHT22;4012;48.896;9.192;2024-03-07T12:37:06;8.50;99.90
7934;DHT22;4012;48.896;9.192;2024-03-07T12:39:33;8.50;99.90
7934;DHT22;4012;48.896;9.192;2024-03-07T12:42:05;8.50;99.90
7934;DHT22;4012;48.896;9.192;2024-03-07T12:44:44;8.50;99.90
7934;DHT22;4012;48.896;9.192;2024-03-07T12:47:13;9.00;99.90
7934;DHT22;4012;48.896;9.192;2024-03-07T12:49:45;8.70;99.90
7934;DHT22;4012;48.896;9.192;2024-03-07T12:52:12;8.70;99.90
7934;DHT22;4012;48.896;9.192;2024-03-07T12:54:41;8.50;99.90
7934;DHT22;4012;48.896;9.192;2024-03-07T12:57:07;8.60;99.90
7934;DHT22;4012;48.896;9.192;2024-03-07T12:59:35;8.70;99.90
7934;DHT22;4012;48.896;9.192;2024-03-07T13:02:03;8.70;99.90
7934;DHT22;4012;48.896;9.192;2024-03-07T13:04:34;8.60;99.90
7934;DHT22;4012;48.896;9.192;2024-03-07T13:07:03;8.80;99.90
7934;DHT22;4012;48.896;9.192;2024-03-07T13:09:33;8.90;99.90
7934;DHT22;4012;48.896;9.192;2024-03-07T13:11:59;8.50;99.90
7934;DHT22;4012;48.896;9.192;2024-03-07T13:14:30;8.40;99.90
7934;DHT22;4012;48.896;9.192;2024-03-07T13:17:01;8.30;99.90
7934;DHT22;4012;48.896;9.192;2024-03-07T13:19:28;8.00;99.90
7934;DHT22;4012;48.896;9.192;2024-03-07T13:21:54;8.10;99.90
7934;DHT22;4012;48.896;9.192;2024-03-07T13:24:21;8.20;99.90
7934;DHT22;4012;48.896;9.192;2024-03-07T13:26:46;8.20;99.90
7934;DHT22;4012;48.896;9.192;2024-03-07T13:29:16;8.30;99.90
7934;DHT22;4012;48.896;9.192;2024-03-07T13:31:43;8.20;99.90
7934;DHT22;4012;48.896;9.192;2024-03-07T13:34:10;8.30;99.90
7934;DHT22;4012;48.896;9.192;2024-03-07T13:36:42;8.30;99.90
7934;DHT22;4012;48.896;9.192;2024-03-07T13:39:09;8.20;99.90
7934;DHT22;4012;48.896;9.192;2024-03-07T13:41:40;8.30;99.90
7934;DHT22;4012;48.896;9.192;2024-03-07T13:44:06;8.40;99.90
7934;DHT22;4012;48.896;9.192;2024-03-07T13:46:32;8.50;99.90
7934;DHT22;4012;48.896;9.192;2024-03-07T13:49:02;8.70;99.90
7934;DHT22;4012;48.896;9.192;2024-03-07T13:51:42;8.60;99.90
7934;DHT22;4012;48.896;9.192;2024-03-07T13:54:19;8.50;99.90
7934;DHT22;4012;48.896;9.192;2024-03-07T14:03:23;8.50;99.90
7934;DHT22;4012;48.896;9.192;2024-03-07T14:06:02;8.50;99.90
7934;DHT22;4012;48.896;9.192;2024-03-07T14:17:44;8.60;99.90
7934;DHT22;4012;48.896;9.192;2024-03-07T14:25:51;9.40;99.90
7934;DHT22;4012;48.896;9.192;2024-03-07T14:31:11;9.10;99.90
7934;DHT22;4012;48.896;9.192;2024-03-07T14:36:38;8.60;99.90
7934;DHT22;4012;48.896;9.192;2024-03-07T14:39:06;8.70;99.90
7934;DHT22;4012;48.896;9.192;2024-03-07T14:41:54;8.50;99.90
7934;DHT22;4012;48.896;9.192;2024-03-07T14:44:21;8.70;99.90
7934;DHT22;4012;48.896;9.192;2024-03-07T14:46:51;8.60;99.90
7934;DHT22;4012;48.896;9.192;2024-03-07T14:49:20;8.60;99.90
7934;DHT22;4012;48.896;9.192;2024-03-07T14:51:46;8.80;99.90
7934;DHT22;4012;48.896;9.192;2024-03-07T14:54:14;8.80;99.90
7934;DHT22;4012;48.896;9.192;2024-03-07T14:56:40;9.10;99.90
7934;DHT22;4012;48.896;9.192;2024-03-07T14:59:06;9.00;99.90
7934;DHT22;4012;48.896;9.192;2024-03-07T15:01:32;8.70;99.90
7934;DHT22;4012;48.896;9.192;2024-03-07T15:04:00;8.60;99.90
7934;DHT22;4012;48.896;9.192;2024-03-07T15:06:29;8.60;99.90
7934;DHT22;4012;48.896;9.192;2024-03-07T15:08:57;8.60;99.90
7934;DHT22;4012;48.896;9.192;2024-03-07T15:11:35;8.70;99.90
7934;DHT22;4012;48.896;9.192;2024-03-07T15:14:01;8.90;99.90
7934;DHT22;4012;48.896;9.192;2024-03-07T15:16:30;8.90;99.90
7934;DHT22;4012;48.896;9.192;2024-03-07T15:19:00;8.60;99.90
7934;DHT22;4012;48.896;9.192;2024-03-07T15:21:26;8.70;99.90
7934;DHT22;4012;48.896;9.192;2024-03-07T15:23:57;8.80;99.90
7934;DHT22;4012;48.896;9.192;2024-03-07T15:26:23;8.60;99.90
7934;DHT22;4012;48.896;9.192;2024-03-07T15:28:53;8.40;99.90
7934;DHT22;4012;48.896;9.192;2024-03-07T15:31:20;8.50;99.90
7934;DHT22;4012;48.896;9.192;2024-03-07T15:33:49;8.40;99.90
7934;DHT22;4012;48.896;9.192;2024-03-07T15:36:16;8.40;99.90
7934;DHT22;4012;48.896;9.192;2024-03-07T15:38:43;8.40;99.90
7934;DHT22;4012;48.896;9.192;2024-03-07T15:41:09;8.50;99.90
7934;DHT22;4012;48.896;9.192;2024-03-07T15:43:40;8.60;99.90
7934;DHT22;4012;48.896;9.192;2024-03-07T15:46:11;8.40;99.90
7934;DHT22;4012;48.896;9.192;2024-03-07T15:48:38;8.30;99.90
7934;DHT22;4012;48.896;9.192;2024-03-07T15:51:04;8.40;99.90
7934;DHT22;4012;48.896;9.192;2024-03-07T15:53:30;8.20;99.90
7934;DHT22;4012;48.896;9.192;2024-03-07T15:55:59;8.20;99.90
7934;DHT22;4012;48.896;9.192;2024-03-07T15:58:25;8.30;99.90
7934;DHT22;4012;48.896;9.192;2024-03-07T16:00:51;8.30;99.90
7934;DHT22;4012;48.896;9.192;2024-03-07T16:03:16;8.20;99.90
7934;DHT22;4012;48.896;9.192;2024-03-07T16:05:43;8.30;99.90
7934;DHT22;4012;48.896;9.192;2024-03-07T16:08:10;8.40;99.90
7934;DHT22;4012;48.896;9.192;2024-03-07T16:10:40;8.30;99.90
7934;DHT22;4012;48.896;9.192;2024-03-07T16:13:11;8.30;99.90
7934;DHT22;4012;48.896;9.192;2024-03-07T16:15:45;8.30;99.90
7934;DHT22;4012;48.896;9.192;2024-03-07T16:18:12;8.20;99.90
7934;DHT22;4012;48.896;9.192;2024-03-07T16:20:39;8.20;99.90
7934;DHT22;4012;48.896;9.192;2024-03-07T16:23:05;8.20;99.90
7934;DHT22;4012;48.896;9.192;2024-03-07T16:25:32;8.20;99.90
7934;DHT22;4012;48.896;9.192;2024-03-07T16:27:59;8.20;99.90
7934;DHT22;4012;48.896;9.192;2024-03-07T16:30:28;8.30;99.90
7934;DHT22;4012;48.896;9.192;2024-03-07T16:32:57;8.30;99.90
7934;DHT22;4012;48.896;9.192;2024-03-07T16:35:24;8.40;99.90
7934;DHT22;4012;48.896;9.192;2024-03-07T16:37:50;8.30;99.90
7934;DHT22;4012;48.896;9.192;2024-03-07T16:40:21;8.30;99.90
7934;DHT22;4012;48.896;9.192;2024-03-07T16:42:57;8.30;99.90
7934;DHT22;4012;48.896;9.192;2024-03-07T16:45:30;8.40;99.90
7934;DHT22;4012;48.896;9.192;2024-03-07T16:48:03;8.20;99.90
7934;DHT22;4012;48.896;9.192;2024-03-07T16:50:30;8.20;99.90
7934;DHT22;4012;48.896;9.192;2024-03-07T16:52:57;8.10;99.90
7934;DHT22;4012;48.896;9.192;2024-03-07T16:55:23;8.20;99.90
7934;DHT22;4012;48.896;9.192;2024-03-07T16:57:50;8.30;99.90